Time;durP1;ratioP1;P1;durP2;ratioP2;P2;SDS_P1;SDS_P2;PMS_P1;PMS_P2;Temp;Humidity;BMP_temperature;BMP_pressure;BME280_temperature;BME280_humidity;BME280_pressure;Samples;Min_cycle;Max_cycle;Signal;HPM_P1;HPM_P2
2022/06/07 00:00:51;;;;;;;0.50;0.50;;;;;;;;;;4561622;28;20036;-72
2022/06/07 00:03:02;;;;;;;0.50;0.50;;;;;;;;;;4561018;28;21111;-72
2022/06/07 00:05:12;;;;;;;0.50;0.50;;;;;;;;;;4561307;28;20031;-72
2022/06/07 00:07:24;;;;;;;0.50;0.50;;;;;;;;;;4562746;28;20035;-73
2022/06/07 00:09:35;;;;;;;1.02;0.63;;;;;;;;;;4560587;28;20044;-74
2022/06/07 00:11:45;;;;;;;0.50;0.50;;;;;;;;;;4553071;28;20044;-75
2022/06/07 00:13:56;;;;;;;1.17;0.85;;;;;;;;;;4562317;28;20047;-75
2022/06/07 00:16:06;;;;;;;0.60;0.60;;;;;;;;;;4561769;28;20024;-75
2022/06/07 00:18:17;;;;;;;0.60;0.60;;;;;;;;;;4560819;28;20773;-74
2022/06/07 00:20:27;;;;;;;0.50;0.50;;;;;;;;;;4564512;27;20025;-75
2022/06/07 00:22:38;;;;;;;0.50;0.50;;;;;;;;;;4561023;28;20625;-75
2022/06/07 00:24:49;;;;;;;0.82;0.60;;;;;;;;;;4560768;27;20048;-74
2022/06/07 00:26:59;;;;;;;0.45;0.45;;;;;;;;;;4560956;28;20302;-75
2022/06/07 00:29:10;;;;;;;0.70;0.60;;;;;;;;;;4541837;28;20140;-75
2022/06/07 00:31:20;;;;;;;0.50;0.50;;;;;;;;;;4561094;27;20026;-74
2022/06/07 00:33:31;;;;;;;0.47;0.47;;;;;;;;;;4561965;27;20024;-75
2022/06/07 00:35:41;;;;;;;0.50;0.50;;;;;;;;;;4563452;28;20044;-74
2022/06/07 00:37:52;;;;;;;0.80;0.70;;;;;;;;;;4546479;28;20020;-75
2022/06/07 00:40:04;;;;;;;0.50;0.50;;;;;;;;;;4563553;28;20548;-75
2022/06/07 00:42:15;;;;;;;0.70;0.70;;;;;;;;;;4562491;28;20631;-74
2022/06/07 00:44:25;;;;;;;0.73;0.60;;;;;;;;;;4562906;27;20067;-74
2022/06/07 00:46:36;;;;;;;0.70;0.70;;;;;;;;;;4564060;28;20127;-74
2022/06/07 00:48:47;;;;;;;0.70;0.70;;;;;;;;;;4565159;27;20047;-74
2022/06/07 00:51:10;;;;;;;0.98;0.77;;;;;;;;;;4552398;28;20426;-73
2022/06/07 00:53:24;;;;;;;0.80;0.80;;;;;;;;;;4551763;28;20107;-73
2022/06/07 00:55:36;;;;;;;0.80;0.57;;;;;;;;;;4563538;28;20062;-73
2022/06/07 00:57:55;;;;;;;0.60;0.60;;;;;;;;;;4561319;27;20649;-73
2022/06/07 01:00:19;;;;;;;0.98;0.68;;;;;;;;;;4559936;28;20965;-73
2022/06/07 01:02:32;;;;;;;0.85;0.80;;;;;;;;;;4559709;28;20050;-73
2022/06/07 01:04:42;;;;;;;0.80;0.80;;;;;;;;;;4559502;28;20044;-74
2022/06/07 01:11:56;;;;;;;0.60;0.60;;;;;;;;;;4562805;28;20570;-73
2022/06/07 01:14:07;;;;;;;0.80;0.80;;;;;;;;;;4546207;28;20047;-72
2022/06/07 01:16:17;;;;;;;1.45;0.80;;;;;;;;;;4559747;28;20035;-72
2022/06/07 01:18:31;;;;;;;1.45;0.90;;;;;;;;;;4544562;28;20040;-72
2022/06/07 01:20:43;;;;;;;1.10;0.90;;;;;;;;;;4561023;27;20033;-73
2022/06/07 01:22:53;;;;;;;0.80;0.80;;;;;;;;;;4560669;28;20025;-72
2022/06/07 01:25:04;;;;;;;0.95;0.88;;;;;;;;;;4560796;28;20043;-72
2022/06/07 01:27:16;;;;;;;0.80;0.80;;;;;;;;;;4561906;27;20542;-73
2022/06/07 01:29:26;;;;;;;1.50;0.90;;;;;;;;;;4562706;28;20102;-73
2022/06/07 01:31:37;;;;;;;1.20;0.90;;;;;;;;;;4547916;28;20173;-72
2022/06/07 01:33:48;;;;;;;1.65;0.90;;;;;;;;;;4545160;28;20159;-72
2022/06/07 01:36:04;;;;;;;1.00;0.90;;;;;;;;;;4562151;28;20115;-72
2022/06/07 01:38:15;;;;;;;1.10;0.98;;;;;;;;;;4559113;28;20066;-71
2022/06/07 01:42:54;;;;;;;0.93;0.90;;;;;;;;;;4560623;27;20139;-72
2022/06/07 01:45:05;;;;;;;0.77;0.77;;;;;;;;;;4559007;28;20034;-72
2022/06/07 01:47:19;;;;;;;1.10;1.00;;;;;;;;;;4568536;28;20032;-71
2022/06/07 01:49:36;;;;;;;0.90;0.88;;;;;;;;;;4568467;28;20032;-71
2022/06/07 01:51:47;;;;;;;1.48;0.90;;;;;;;;;;4560681;28;20024;-72
2022/06/07 01:53:57;;;;;;;1.27;0.90;;;;;;;;;;4561109;28;20060;-72
2022/06/07 01:56:14;;;;;;;0.90;0.90;;;;;;;;;;4561056;27;20033;-72
2022/06/07 01:58:26;;;;;;;0.98;0.90;;;;;;;;;;4572234;28;20029;-72
2022/06/07 02:00:39;;;;;;;1.25;0.95;;;;;;;;;;4564117;28;20381;-72
2022/06/07 02:02:49;;;;;;;1.05;0.90;;;;;;;;;;4564777;28;20031;-72
2022/06/07 02:05:00;;;;;;;1.25;0.90;;;;;;;;;;4547617;28;20127;-72
2022/06/07 02:07:14;;;;;;;1.42;1.00;;;;;;;;;;4564682;27;20432;-72
2022/06/07 02:09:26;;;;;;;1.10;1.00;;;;;;;;;;4564721;28;20575;-73
2022/06/07 02:11:38;;;;;;;0.80;0.80;;;;;;;;;;4563638;28;20127;-72
2022/06/07 02:13:52;;;;;;;0.80;0.80;;;;;;;;;;4568217;28;20043;-73
2022/06/07 02:16:03;;;;;;;1.00;1.00;;;;;;;;;;4571920;27;20039;-73
2022/06/07 02:18:14;;;;;;;1.00;0.82;;;;;;;;;;4563429;28;20059;-72
2022/06/07 02:20:48;;;;;;;1.10;1.00;;;;;;;;;;4556736;28;20719;-72
2022/06/07 02:22:58;;;;;;;0.80;0.80;;;;;;;;;;4565669;28;20692;-72
2022/06/07 02:25:09;;;;;;;1.08;0.85;;;;;;;;;;4556359;28;20875;-72
2022/06/07 02:27:21;;;;;;;1.38;0.90;;;;;;;;;;4566560;28;20608;-72
2022/06/07 02:29:35;;;;;;;0.90;0.90;;;;;;;;;;4562388;28;20071;-71
2022/06/07 02:31:50;;;;;;;1.10;1.00;;;;;;;;;;4563452;28;20091;-70
2022/06/07 02:34:01;;;;;;;1.23;1.00;;;;;;;;;;4571389;27;20043;-71
2022/06/07 02:36:12;;;;;;;1.17;0.95;;;;;;;;;;4561483;28;20028;-71
2022/06/07 02:38:22;;;;;;;1.15;1.05;;;;;;;;;;4565685;28;20036;-71
2022/06/07 02:40:34;;;;;;;1.13;0.90;;;;;;;;;;4562250;28;20036;-71
2022/06/07 02:42:44;;;;;;;0.90;0.90;;;;;;;;;;4561898;28;20832;-71
2022/06/07 02:44:55;;;;;;;1.58;1.10;;;;;;;;;;4570836;28;20036;-71
2022/06/07 02:47:05;;;;;;;1.25;0.90;;;;;;;;;;4563238;28;20042;-71
2022/06/07 02:49:16;;;;;;;1.05;0.95;;;;;;;;;;4554239;28;20074;-71
2022/06/07 02:51:28;;;;;;;0.98;0.90;;;;;;;;;;4554866;28;20114;-70
2022/06/07 02:53:39;;;;;;;1.20;1.10;;;;;;;;;;4548994;28;20303;-71
2022/06/07 02:55:50;;;;;;;1.17;1.08;;;;;;;;;;4565480;28;20037;-72
2022/06/07 02:58:05;;;;;;;0.90;0.90;;;;;;;;;;4565476;28;20035;-71
2022/06/07 03:00:17;;;;;;;1.60;0.95;;;;;;;;;;4566201;27;20587;-71
2022/06/07 03:02:27;;;;;;;1.70;0.90;;;;;;;;;;4564221;28;20036;-72
2022/06/07 03:04:39;;;;;;;1.25;1.10;;;;;;;;;;4563469;28;20586;-71
2022/06/07 03:06:51;;;;;;;1.40;0.98;;;;;;;;;;4554285;28;20087;-71
2022/06/07 03:09:02;;;;;;;0.80;0.80;;;;;;;;;;4560666;28;20027;-72
2022/06/07 03:11:14;;;;;;;1.52;1.00;;;;;;;;;;4564160;28;20815;-72
2022/06/07 03:13:25;;;;;;;1.00;0.90;;;;;;;;;;4563095;28;21175;-72
2022/06/07 03:15:37;;;;;;;1.02;0.90;;;;;;;;;;4563955;28;20711;-72
2022/06/07 03:17:49;;;;;;;1.30;1.15;;;;;;;;;;4564779;28;20550;-72
2022/06/07 03:20:05;;;;;;;1.10;1.00;;;;;;;;;;4560898;27;20028;-72
2022/06/07 03:22:15;;;;;;;1.00;0.90;;;;;;;;;;4570610;28;20049;-72
2022/06/07 03:24:28;;;;;;;1.20;0.90;;;;;;;;;;4578528;27;20028;-74
2022/06/07 03:26:39;;;;;;;1.10;1.00;;;;;;;;;;4563953;28;20028;-73
2022/06/07 03:28:53;;;;;;;0.88;0.88;;;;;;;;;;4563273;28;20028;-73
2022/06/07 03:31:12;;;;;;;0.90;0.90;;;;;;;;;;4562724;28;20040;-73
2022/06/07 03:33:25;;;;;;;0.90;0.88;;;;;;;;;;4547167;28;20082;-73
2022/06/07 03:35:37;;;;;;;0.90;0.80;;;;;;;;;;4563237;28;20553;-73
2022/06/07 03:37:48;;;;;;;1.60;0.90;;;;;;;;;;4560972;28;20158;-73
2022/06/07 03:40:00;;;;;;;1.17;0.80;;;;;;;;;;4562591;28;20033;-73
2022/06/07 03:42:12;;;;;;;0.93;0.90;;;;;;;;;;4564086;28;20028;-73
2022/06/07 03:44:23;;;;;;;1.33;0.95;;;;;;;;;;4545573;28;20033;-73
2022/06/07 03:46:42;;;;;;;1.58;1.00;;;;;;;;;;4564783;27;20036;-73
2022/06/07 03:48:54;;;;;;;1.10;1.00;;;;;;;;;;4560865;28;20044;-73
2022/06/07 03:51:09;;;;;;;2.20;1.00;;;;;;;;;;4554096;28;20068;-73
2022/06/07 03:53:20;;;;;;;1.23;0.90;;;;;;;;;;4563194;27;20024;-73
2022/06/07 03:55:31;;;;;;;0.93;0.85;;;;;;;;;;4563767;28;20538;-73
2022/06/07 03:57:54;;;;;;;1.02;0.82;;;;;;;;;;4561946;28;20020;-73
2022/06/07 04:00:06;;;;;;;0.80;0.80;;;;;;;;;;4559497;28;21077;-73
2022/06/07 04:02:26;;;;;;;1.10;0.98;;;;;;;;;;4561057;28;20040;-73
2022/06/07 04:04:38;;;;;;;1.23;1.00;;;;;;;;;;4559376;28;20036;-72
2022/06/07 04:09:25;;;;;;;1.42;0.90;;;;;;;;;;4569203;28;20688;-73
2022/06/07 04:11:36;;;;;;;0.85;0.82;;;;;;;;;;4560889;28;20179;-73
2022/06/07 04:13:48;;;;;;;1.00;0.90;;;;;;;;;;4560345;28;20234;-72
2022/06/07 04:15:58;;;;;;;0.93;0.90;;;;;;;;;;4559210;28;20033;-72
2022/06/07 04:18:10;;;;;;;1.33;0.95;;;;;;;;;;4528865;28;20212;-73
2022/06/07 04:20:22;;;;;;;2.25;1.00;;;;;;;;;;4563004;28;20111;-71
2022/06/07 04:22:33;;;;;;;1.40;0.88;;;;;;;;;;4568904;28;20186;-73
2022/06/07 04:24:50;;;;;;;0.80;0.80;;;;;;;;;;4576247;27;20112;-73
2022/06/07 04:27:03;;;;;;;1.30;0.90;;;;;;;;;;4569570;28;20067;-73
2022/06/07 04:29:15;;;;;;;1.15;0.90;;;;;;;;;;4563345;28;20052;-72
2022/06/07 04:31:27;;;;;;;1.55;0.88;;;;;;;;;;4563732;28;20127;-72
2022/06/07 04:33:47;;;;;;;0.70;0.70;;;;;;;;;;4555038;27;21556;-72
2022/06/07 04:36:01;;;;;;;1.27;0.88;;;;;;;;;;4568479;27;20506;-72
2022/06/07 04:38:13;;;;;;;1.15;0.90;;;;;;;;;;4559480;28;20035;-72
2022/06/07 04:40:26;;;;;;;1.10;0.90;;;;;;;;;;4559263;27;20032;-72
2022/06/07 04:42:37;;;;;;;0.95;0.85;;;;;;;;;;4560891;28;20409;-72
2022/06/07 04:44:54;;;;;;;;;;;;;;;;;;4570331;28;20130;-72
2022/06/07 04:47:13;;;;;;;1.63;0.98;;;;;;;;;;4563466;27;20478;-72
2022/06/07 04:49:26;;;;;;;1.23;0.80;;;;;;;;;;4549849;28;20042;-72
2022/06/07 04:51:38;;;;;;;1.65;1.10;;;;;;;;;;4547497;28;20214;-73
2022/06/07 04:53:57;;;;;;;1.55;0.90;;;;;;;;;;4564150;28;20102;-73
2022/06/07 04:56:13;;;;;;;0.82;0.70;;;;;;;;;;4559628;28;20043;-73
2022/06/07 04:58:24;;;;;;;1.10;0.75;;;;;;;;;;4561544;28;20037;-73
2022/06/07 05:00:37;;;;;;;0.88;0.70;;;;;;;;;;4562748;28;20029;-73
2022/06/07 05:02:48;;;;;;;1.20;0.90;;;;;;;;;;4563836;28;20032;-74
2022/06/07 05:04:59;;;;;;;1.88;0.90;;;;;;;;;;4569317;27;20028;-73
2022/06/07 05:07:10;;;;;;;0.80;0.80;;;;;;;;;;4561310;28;20036;-74
2022/06/07 05:09:56;;;;;;;1.65;0.90;;;;;;;;;;4558047;27;20044;-73
2022/06/07 05:12:15;;;;;;;0.95;0.70;;;;;;;;;;4553557;28;20186;-73
2022/06/07 05:14:30;;;;;;;1.60;0.93;;;;;;;;;;4561936;27;20028;-74
2022/06/07 05:16:42;;;;;;;1.38;0.80;;;;;;;;;;4560113;28;20020;-73
2022/06/07 05:18:55;;;;;;;1.45;0.88;;;;;;;;;;4560573;28;20448;-73
2022/06/07 05:21:07;;;;;;;1.42;1.00;;;;;;;;;;4552259;28;20041;-74
2022/06/07 05:23:19;;;;;;;1.42;1.00;;;;;;;;;;4560823;28;20032;-73
2022/06/07 05:25:35;;;;;;;2.47;1.20;;;;;;;;;;4546669;28;20118;-74
2022/06/07 05:27:48;;;;;;;1.05;0.95;;;;;;;;;;4562445;28;20170;-74
2022/06/07 05:30:02;;;;;;;1.60;0.80;;;;;;;;;;4547239;28;20155;-74
2022/06/07 05:32:31;;;;;;;1.95;0.88;;;;;;;;;;4562535;28;20638;-74
2022/06/07 05:34:43;;;;;;;1.33;0.80;;;;;;;;;;4568849;28;20629;-73
2022/06/07 05:36:54;;;;;;;2.05;0.80;;;;;;;;;;4562336;28;20036;-74
2022/06/07 05:39:04;;;;;;;1.38;0.80;;;;;;;;;;4561931;28;20043;-73
2022/06/07 05:41:20;;;;;;;1.27;0.88;;;;;;;;;;4561654;27;20028;-73
2022/06/07 05:43:32;;;;;;;1.15;1.00;;;;;;;;;;4559599;27;20029;-73
2022/06/07 05:45:51;;;;;;;1.30;0.90;;;;;;;;;;4562846;28;20142;-75
2022/06/07 05:48:07;;;;;;;0.70;0.70;;;;;;;;;;4559086;27;20143;-75
2022/06/07 05:50:25;;;;;;;1.58;0.90;;;;;;;;;;4567572;27;20047;-75
2022/06/07 05:52:40;;;;;;;1.63;0.88;;;;;;;;;;4563346;28;20028;-75
2022/06/07 05:54:53;;;;;;;1.25;1.00;;;;;;;;;;4563114;28;20039;-75
2022/06/07 05:57:05;;;;;;;0.90;0.80;;;;;;;;;;4562737;28;20040;-75
2022/06/07 05:59:15;;;;;;;0.80;0.80;;;;;;;;;;4547462;28;20021;-74
2022/06/07 06:01:27;;;;;;;1.98;0.90;;;;;;;;;;4559430;28;20824;-75
2022/06/07 06:03:41;;;;;;;2.13;0.80;;;;;;;;;;4556830;28;20043;-74
2022/06/07 06:05:53;;;;;;;0.77;0.60;;;;;;;;;;4567954;28;20020;-74
2022/06/07 06:10:44;;;;;;;2.03;1.00;;;;;;;;;;4564539;28;20091;-74
2022/06/07 06:12:55;;;;;;;1.20;1.10;;;;;;;;;;4561845;28;20028;-75
2022/06/07 06:15:06;;;;;;;1.92;0.85;;;;;;;;;;4562484;28;20071;-74
2022/06/07 06:17:17;;;;;;;2.70;1.13;;;;;;;;;;4567616;28;20028;-74
2022/06/07 06:19:33;;;;;;;;;;;;;;;;;;4568728;28;20077;-74
2022/06/07 06:21:45;;;;;;;1.15;0.70;;;;;;;;;;4563654;28;19967;-75
2022/06/07 06:23:58;;;;;;;1.73;0.90;;;;;;;;;;4557605;28;20602;-75
2022/06/07 06:26:16;;;;;;;0.90;0.80;;;;;;;;;;4561868;28;20028;-74
2022/06/07 06:28:26;;;;;;;1.25;0.93;;;;;;;;;;4561396;28;20974;-74
2022/06/07 06:30:42;;;;;;;1.80;0.80;;;;;;;;;;4560464;28;20046;-74
2022/06/07 06:33:00;;;;;;;1.20;0.80;;;;;;;;;;4553778;28;20148;-74
2022/06/07 06:35:12;;;;;;;1.05;0.80;;;;;;;;;;4561457;28;20057;-74
2022/06/07 06:37:23;;;;;;;1.95;0.90;;;;;;;;;;4557065;28;20059;-74
2022/06/07 06:39:33;;;;;;;1.23;0.80;;;;;;;;;;4559666;28;20043;-74
2022/06/07 06:41:46;;;;;;;0.82;0.73;;;;;;;;;;4543948;28;20040;-74
2022/06/07 06:44:01;;;;;;;0.90;0.70;;;;;;;;;;4569632;27;20039;-74
2022/06/07 06:46:24;;;;;;;0.85;0.73;;;;;;;;;;4555127;28;20047;-74
2022/06/07 06:48:35;;;;;;;1.15;0.70;;;;;;;;;;4563782;28;20100;-74
2022/06/07 06:50:45;;;;;;;1.40;0.73;;;;;;;;;;4578096;27;20044;-73
2022/06/07 06:52:57;;;;;;;1.85;0.82;;;;;;;;;;4578474;27;20040;-73
2022/06/07 06:55:09;;;;;;;1.15;0.70;;;;;;;;;;4565291;28;20652;-74
2022/06/07 06:57:19;;;;;;;1.45;0.70;;;;;;;;;;4561009;28;20222;-74
2022/06/07 06:59:33;;;;;;;1.92;0.63;;;;;;;;;;4561906;28;20543;-74
2022/06/07 07:01:45;;;;;;;1.10;0.60;;;;;;;;;;4562916;28;20019;-74
2022/06/07 07:04:01;;;;;;;0.98;0.70;;;;;;;;;;4562646;28;20032;-74
2022/06/07 07:06:13;;;;;;;0.90;0.60;;;;;;;;;;4566412;28;20250;-74
2022/06/07 07:08:25;;;;;;;1.27;0.65;;;;;;;;;;4549519;28;20568;-75
2022/06/07 07:10:35;;;;;;;1.10;0.75;;;;;;;;;;4562312;28;20162;-74
2022/06/07 07:12:46;;;;;;;0.82;0.60;;;;;;;;;;4562681;27;20025;-74
2022/06/07 07:14:57;;;;;;;0.75;0.70;;;;;;;;;;4564640;28;20032;-74
2022/06/07 07:17:11;;;;;;;0.75;0.60;;;;;;;;;;4560708;28;20067;-74
2022/06/07 07:19:22;;;;;;;0.70;0.60;;;;;;;;;;4565148;28;20044;-74
2022/06/07 07:21:38;;;;;;;1.60;0.82;;;;;;;;;;4561179;28;20052;-75
2022/06/07 07:23:53;;;;;;;0.65;0.55;;;;;;;;;;4561333;28;20121;-74
2022/06/07 07:26:06;;;;;;;0.90;0.70;;;;;;;;;;4547841;28;20090;-74
2022/06/07 07:28:18;;;;;;;1.48;0.60;;;;;;;;;;4569214;28;20032;-74
2022/06/07 07:30:29;;;;;;;1.27;0.52;;;;;;;;;;4537053;28;20862;-74
2022/06/07 07:32:40;;;;;;;0.93;0.60;;;;;;;;;;4569046;28;20105;-75
2022/06/07 07:34:52;;;;;;;0.60;0.60;;;;;;;;;;4546698;28;20036;-74
2022/06/07 07:37:03;;;;;;;0.60;0.60;;;;;;;;;;4565636;28;20032;-74
2022/06/07 07:39:18;;;;;;;1.20;0.60;;;;;;;;;;4564183;28;20122;-75
2022/06/07 07:41:32;;;;;;;0.85;0.50;;;;;;;;;;4562596;28;20033;-75
2022/06/07 07:43:45;;;;;;;1.63;0.60;;;;;;;;;;4554493;28;20027;-75
2022/06/07 07:45:56;;;;;;;0.50;0.50;;;;;;;;;;4571070;28;20097;-74
2022/06/07 07:48:07;;;;;;;1.58;0.70;;;;;;;;;;4570446;28;20026;-74
2022/06/07 07:50:24;;;;;;;2.08;0.70;;;;;;;;;;4565064;28;20044;-74
2022/06/07 07:52:38;;;;;;;0.85;0.60;;;;;;;;;;4562162;27;20036;-74
2022/06/07 07:54:53;;;;;;;0.50;0.50;;;;;;;;;;4569509;28;20058;-74
2022/06/07 07:57:04;;;;;;;1.15;0.60;;;;;;;;;;4563645;28;20047;-75
2022/06/07 07:59:19;;;;;;;0.65;0.50;;;;;;;;;;4562642;28;20217;-75
2022/06/07 08:01:30;;;;;;;0.85;0.68;;;;;;;;;;4550583;28;20028;-75
2022/06/07 08:03:42;;;;;;;1.02;0.80;;;;;;;;;;4560326;28;20063;-75
2022/06/07 08:05:52;;;;;;;1.58;0.73;;;;;;;;;;4560759;28;20074;-74
2022/06/07 08:08:03;;;;;;;0.80;0.60;;;;;;;;;;4558901;28;20086;-73
2022/06/07 08:10:14;;;;;;;1.20;0.50;;;;;;;;;;4560412;28;20566;-74
2022/06/07 08:12:26;;;;;;;0.90;0.70;;;;;;;;;;4561109;28;20059;-74
2022/06/07 08:14:37;;;;;;;2.03;0.75;;;;;;;;;;4562931;28;20071;-74
2022/06/07 08:16:49;;;;;;;0.63;0.50;;;;;;;;;;4569141;28;20047;-75
2022/06/07 08:18:59;;;;;;;0.98;0.60;;;;;;;;;;4563955;28;20150;-74
2022/06/07 08:21:13;;;;;;;1.63;0.60;;;;;;;;;;4562147;28;20123;-74
2022/06/07 08:23:24;;;;;;;0.80;0.55;;;;;;;;;;4569907;28;21797;-74
2022/06/07 08:25:35;;;;;;;1.75;0.70;;;;;;;;;;4560766;28;20028;-74
2022/06/07 08:27:45;;;;;;;0.47;0.47;;;;;;;;;;4562862;28;20048;-74
2022/06/07 08:29:56;;;;;;;0.50;0.50;;;;;;;;;;4560490;28;20036;-74
2022/06/07 08:32:07;;;;;;;0.68;0.50;;;;;;;;;;4562126;27;20483;-74
2022/06/07 08:39:37;;;;;;;0.77;0.52;;;;;;;;;;4533770;28;20036;-75
2022/06/07 08:41:53;;;;;;;0.60;0.47;;;;;;;;;;4543470;28;20100;-74
2022/06/07 08:44:07;;;;;;;0.80;0.50;;;;;;;;;;4561305;28;20036;-75
2022/06/07 08:46:19;;;;;;;0.90;0.60;;;;;;;;;;4562991;28;20761;-74
2022/06/07 08:48:32;;;;;;;0.70;0.50;;;;;;;;;;4561628;28;20025;-75
2022/06/07 08:50:56;;;;;;;1.52;0.50;;;;;;;;;;4560505;28;20420;-73
2022/06/07 08:53:20;;;;;;;1.05;0.55;;;;;;;;;;4560063;28;20040;-74
2022/06/07 08:55:53;;;;;;;0.73;0.55;;;;;;;;;;4562720;28;20039;-73
2022/06/07 08:58:34;;;;;;;1.17;0.57;;;;;;;;;;4565531;28;20242;-74
2022/06/07 09:00:50;;;;;;;0.60;0.60;;;;;;;;;;4564240;28;20059;-74
2022/06/07 09:03:13;;;;;;;0.93;0.50;;;;;;;;;;4561794;28;20036;-74
2022/06/07 09:05:25;;;;;;;0.95;0.60;;;;;;;;;;4560604;27;20576;-74
2022/06/07 09:07:36;;;;;;;0.70;0.50;;;;;;;;;;4561972;27;20029;-74
2022/06/07 09:12:29;;;;;;;1.10;0.70;;;;;;;;;;4560610;28;20036;-74
2022/06/07 09:14:55;;;;;;;0.85;0.60;;;;;;;;;;4564465;28;20090;-74
2022/06/07 09:17:14;;;;;;;0.82;0.60;;;;;;;;;;4560703;28;20701;-75
2022/06/07 09:19:27;;;;;;;0.82;0.55;;;;;;;;;;4526333;28;20037;-75
2022/06/07 09:21:41;;;;;;;1.25;0.65;;;;;;;;;;4558134;28;20040;-74
2022/06/07 09:23:52;;;;;;;1.42;0.50;;;;;;;;;;4561136;28;20214;-74
2022/06/07 09:26:27;;;;;;;0.98;0.60;;;;;;;;;;4560004;27;20662;-74
2022/06/07 09:28:37;;;;;;;0.73;0.50;;;;;;;;;;4560493;28;20032;-74
2022/06/07 09:31:00;;;;;;;1.15;0.50;;;;;;;;;;4562955;27;20807;-74
2022/06/07 09:33:32;;;;;;;1.27;0.60;;;;;;;;;;4562696;28;20069;-74
2022/06/07 09:35:42;;;;;;;0.45;0.45;;;;;;;;;;4574861;27;20599;-73
2022/06/07 09:38:02;;;;;;;0.77;0.50;;;;;;;;;;4559861;28;20085;-75
2022/06/07 09:40:27;;;;;;;0.50;0.50;;;;;;;;;;4567941;28;20638;-74
2022/06/07 09:42:37;;;;;;;1.05;0.63;;;;;;;;;;4558667;28;20040;-73
2022/06/07 09:45:12;;;;;;;1.08;0.60;;;;;;;;;;4559265;28;20037;-74
2022/06/07 09:47:27;;;;;;;1.45;0.80;;;;;;;;;;4561566;28;20032;-75
2022/06/07 09:49:41;;;;;;;1.20;0.70;;;;;;;;;;4560019;28;20031;-74
2022/06/07 09:51:52;;;;;;;0.80;0.60;;;;;;;;;;4559398;28;20137;-74
2022/06/07 09:54:05;;;;;;;0.50;0.50;;;;;;;;;;4563892;28;20094;-74
2022/06/07 09:56:34;;;;;;;0.98;0.68;;;;;;;;;;4560355;28;20031;-74
2022/06/07 09:58:53;;;;;;;0.75;0.63;;;;;;;;;;4562777;28;20067;-73
2022/06/07 10:01:12;;;;;;;1.50;0.60;;;;;;;;;;4560597;28;20036;-74
2022/06/07 10:03:59;;;;;;;1.38;0.65;;;;;;;;;;4551071;28;20076;-74
2022/06/07 10:06:26;;;;;;;1.13;0.70;;;;;;;;;;4550608;27;20674;-74
2022/06/07 10:08:45;;;;;;;1.40;0.50;;;;;;;;;;4553210;28;20123;-74
2022/06/07 10:11:01;;;;;;;0.65;0.55;;;;;;;;;;4559598;28;20045;-74
2022/06/07 10:13:24;;;;;;;1.27;0.57;;;;;;;;;;4560177;28;20335;-74
2022/06/07 10:15:38;;;;;;;1.23;0.60;;;;;;;;;;4567790;28;20046;-74
2022/06/07 10:17:49;;;;;;;0.70;0.50;;;;;;;;;;4562290;28;20037;-74
2022/06/07 10:20:19;;;;;;;0.60;0.60;;;;;;;;;;4571815;27;20028;-74
2022/06/07 10:23:09;;;;;;;0.80;0.60;;;;;;;;;;4563221;28;20130;-74
2022/06/07 10:25:24;;;;;;;0.75;0.60;;;;;;;;;;4562619;28;20028;-74
2022/06/07 10:27:50;;;;;;;0.70;0.60;;;;;;;;;;4561327;28;20191;-74
2022/06/07 10:30:07;;;;;;;1.08;0.52;;;;;;;;;;4563592;28;20055;-74
2022/06/07 10:32:36;;;;;;;0.60;0.60;;;;;;;;;;4571660;28;20039;-74
2022/06/07 10:34:50;;;;;;;1.13;0.60;;;;;;;;;;4562595;28;20024;-73
2022/06/07 10:37:13;;;;;;;1.63;0.57;;;;;;;;;;4562169;28;20044;-74
2022/06/07 10:39:29;;;;;;;1.10;0.70;;;;;;;;;;4562364;28;20028;-74
2022/06/07 10:41:42;;;;;;;1.42;0.90;;;;;;;;;;4570991;28;20143;-74
2022/06/07 10:43:59;;;;;;;0.50;0.50;;;;;;;;;;4564283;28;20032;-74
2022/06/07 10:46:12;;;;;;;1.17;0.80;;;;;;;;;;4562313;28;20028;-74
2022/06/07 10:48:37;;;;;;;0.60;0.60;;;;;;;;;;4561878;28;21053;-74
2022/06/07 10:51:02;;;;;;;0.95;0.70;;;;;;;;;;4565045;28;21189;-74
2022/06/07 10:53:31;;;;;;;0.98;0.70;;;;;;;;;;4560599;28;21411;-74
2022/06/07 10:55:53;;;;;;;1.20;0.65;;;;;;;;;;4570984;28;20619;-75
2022/06/07 10:58:21;;;;;;;1.27;0.70;;;;;;;;;;4571073;28;20032;-74
2022/06/07 11:00:31;;;;;;;;;;;;;;;;;;4562960;28;20087;-73
2022/06/07 11:02:51;;;;;;;1.02;0.75;;;;;;;;;;4564046;28;19916;-74
2022/06/07 11:10:16;;;;;;;1.30;0.80;;;;;;;;;;4561414;28;20625;-74
2022/06/07 11:12:30;;;;;;;0.88;0.88;;;;;;;;;;4565463;28;20071;-74
2022/06/07 11:14:46;;;;;;;2.00;0.88;;;;;;;;;;4563111;28;20036;-72
2022/06/07 11:17:03;;;;;;;1.77;0.85;;;;;;;;;;4560322;28;20039;-74
2022/06/07 11:19:14;;;;;;;;;;;;;;;;;;4560308;28;20595;-74
2022/06/07 11:21:32;;;;;;;0.68;0.65;;;;;;;;;;4561380;28;20443;-74
2022/06/07 11:23:42;;;;;;;1.45;0.80;;;;;;;;;;4563613;28;20024;-72
2022/06/07 11:26:06;;;;;;;1.05;0.70;;;;;;;;;;4560909;27;20033;-75
2022/06/07 11:28:23;;;;;;;1.02;0.90;;;;;;;;;;4564410;28;20040;-74
2022/06/07 11:30:33;;;;;;;1.73;0.82;;;;;;;;;;4562118;28;20032;-74
2022/06/07 11:32:58;;;;;;;0.90;0.80;;;;;;;;;;4563698;28;20067;-73
2022/06/07 11:35:43;;;;;;;0.88;0.80;;;;;;;;;;4563601;28;20041;-74
2022/06/07 11:37:54;;;;;;;1.15;0.80;;;;;;;;;;4556776;28;20114;-73
2022/06/07 11:40:28;;;;;;;0.90;0.80;;;;;;;;;;4562036;28;20127;-74
2022/06/07 11:42:38;;;;;;;1.45;0.70;;;;;;;;;;4559655;28;20628;-73
2022/06/07 11:45:20;;;;;;;1.33;1.00;;;;;;;;;;4560294;28;20477;-73
2022/06/07 11:47:36;;;;;;;1.05;0.80;;;;;;;;;;4559865;27;20036;-73
2022/06/07 11:49:46;;;;;;;2.13;0.75;;;;;;;;;;4563454;28;20024;-72
2022/06/07 11:52:00;;;;;;;0.88;0.68;;;;;;;;;;4559349;28;20036;-72
2022/06/07 11:54:15;;;;;;;0.85;0.70;;;;;;;;;;4562506;28;20104;-74
2022/06/07 11:56:51;;;;;;;1.50;0.80;;;;;;;;;;4563407;28;20031;-74
2022/06/07 11:59:21;;;;;;;1.05;0.85;;;;;;;;;;4561154;28;20036;-73
2022/06/07 12:01:39;;;;;;;0.80;0.60;;;;;;;;;;4552001;28;20046;-73
2022/06/07 12:04:24;;;;;;;0.70;0.60;;;;;;;;;;4562116;28;20119;-75
2022/06/07 12:06:34;;;;;;;1.42;0.60;;;;;;;;;;4560218;28;20021;-74
2022/06/07 12:08:57;;;;;;;1.00;0.70;;;;;;;;;;4560393;28;20041;-74
2022/06/07 12:11:23;;;;;;;1.08;0.63;;;;;;;;;;4561395;28;20040;-74
2022/06/07 12:13:51;;;;;;;1.65;0.73;;;;;;;;;;4561839;28;20128;-73
2022/06/07 12:16:01;;;;;;;2.17;0.70;;;;;;;;;;4563782;28;20822;-74
2022/06/07 12:18:24;;;;;;;1.15;0.60;;;;;;;;;;4546849;28;20045;-74
2022/06/07 12:20:39;;;;;;;0.65;0.60;;;;;;;;;;4563483;28;20861;-75
2022/06/07 12:22:50;;;;;;;1.15;0.63;;;;;;;;;;4559838;28;20063;-72
2022/06/07 12:25:11;;;;;;;1.05;0.80;;;;;;;;;;4562614;28;20159;-74
2022/06/07 12:27:34;;;;;;;0.70;0.70;;;;;;;;;;4570406;28;20598;-74
2022/06/07 12:29:45;;;;;;;0.90;0.70;;;;;;;;;;4561351;27;20128;-74
2022/06/07 12:31:57;;;;;;;1.05;0.65;;;;;;;;;;4561631;27;20033;-74
2022/06/07 12:34:28;;;;;;;1.60;0.80;;;;;;;;;;4569226;28;20146;-75
2022/06/07 12:36:39;;;;;;;0.95;0.70;;;;;;;;;;4560658;28;20037;-75
2022/06/07 12:38:50;;;;;;;2.08;0.95;;;;;;;;;;4562441;28;20358;-75
2022/06/07 12:41:02;;;;;;;0.85;0.80;;;;;;;;;;4565266;27;20695;-75
2022/06/07 12:43:31;;;;;;;0.75;0.60;;;;;;;;;;4560752;27;20093;-74
2022/06/07 12:46:00;;;;;;;0.70;0.70;;;;;;;;;;4560895;28;20036;-75
2022/06/07 12:48:15;;;;;;;0.88;0.63;;;;;;;;;;4558896;28;20143;-74
2022/06/07 12:50:37;;;;;;;1.27;0.70;;;;;;;;;;4561440;28;20104;-74
2022/06/07 12:52:53;;;;;;;0.82;0.70;;;;;;;;;;4560505;27;20028;-74
2022/06/07 12:55:12;;;;;;;0.90;0.70;;;;;;;;;;4561432;28;20664;-74
2022/06/07 12:57:29;;;;;;;0.68;0.68;;;;;;;;;;4564083;28;20147;-74
2022/06/07 12:59:50;;;;;;;2.00;1.00;;;;;;;;;;4563631;28;20575;-74
2022/06/07 13:02:02;;;;;;;1.85;0.90;;;;;;;;;;4564168;28;20111;-73
2022/06/07 13:04:18;;;;;;;1.42;0.90;;;;;;;;;;4560150;28;20628;-74
2022/06/07 13:06:28;;;;;;;2.25;0.80;;;;;;;;;;4574599;27;20031;-73
2022/06/07 13:08:41;;;;;;;1.40;1.00;;;;;;;;;;4561591;28;20033;-73
2022/06/07 13:10:51;;;;;;;1.60;0.98;;;;;;;;;;4559851;28;20270;-73
2022/06/07 13:13:05;;;;;;;1.45;0.80;;;;;;;;;;4560494;28;20158;-73
2022/06/07 13:15:20;;;;;;;0.98;0.70;;;;;;;;;;4563402;28;20564;-73
2022/06/07 13:17:37;;;;;;;1.15;0.70;;;;;;;;;;4559745;28;20335;-73
2022/06/07 13:19:48;;;;;;;0.60;0.60;;;;;;;;;;4562469;28;20033;-74
2022/06/07 13:22:10;;;;;;;1.20;0.70;;;;;;;;;;4550398;28;20039;-72
2022/06/07 13:24:27;;;;;;;0.73;0.70;;;;;;;;;;4562669;28;20033;-73
2022/06/07 13:26:43;;;;;;;0.90;0.70;;;;;;;;;;4562213;28;20046;-73
2022/06/07 13:29:33;;;;;;;1.48;0.80;;;;;;;;;;4561550;28;20020;-73
2022/06/07 13:31:51;;;;;;;1.65;0.80;;;;;;;;;;4540361;28;20134;-73
2022/06/07 13:34:05;;;;;;;0.60;0.60;;;;;;;;;;4561651;28;20104;-73
2022/06/07 13:36:37;;;;;;;0.90;0.80;;;;;;;;;;4552023;28;20079;-73
2022/06/07 13:38:51;;;;;;;1.55;0.80;;;;;;;;;;4562478;28;20056;-73
2022/06/07 13:41:05;;;;;;;1.67;0.82;;;;;;;;;;4569047;28;20047;-73
2022/06/07 13:43:18;;;;;;;0.70;0.60;;;;;;;;;;4562636;27;20089;-72
2022/06/07 13:45:30;;;;;;;1.25;0.73;;;;;;;;;;4562134;28;20045;-73
2022/06/07 13:47:48;;;;;;;1.67;0.80;;;;;;;;;;4562421;28;20032;-72
2022/06/07 13:55:04;;;;;;;0.80;0.80;;;;;;;;;;4575190;27;20082;-73
2022/06/07 13:57:14;;;;;;;1.30;0.90;;;;;;;;;;4582720;27;20054;-74
2022/06/07 13:59:24;;;;;;;1.08;0.80;;;;;;;;;;4567395;28;20043;-74
2022/06/07 14:01:38;;;;;;;1.20;0.90;;;;;;;;;;4568408;28;20147;-73